createdAt,value
2018-03-17T00:01:21.009Z,4.80
2018-03-17T00:03:47.898Z,4.70
2018-03-17T00:06:14.790Z,4.60
2018-03-17T00:08:41.641Z,4.60
2018-03-17T00:11:08.575Z,4.70
2018-03-17T00:13:35.424Z,4.70
2018-03-17T00:16:02.315Z,4.70
2018-03-17T00:18:29.205Z,4.60
2018-03-17T00:20:56.124Z,4.60
2018-03-17T00:23:22.981Z,4.50
2018-03-17T00:25:49.924Z,4.50
2018-03-17T00:28:16.785Z,4.60
2018-03-17T00:30:43.686Z,4.30
2018-03-17T00:33:10.608Z,4.20
2018-03-17T00:35:37.489Z,4.20
2018-03-17T00:38:04.364Z,4.30
2018-03-17T00:40:31.245Z,4.20
2018-03-17T00:42:58.563Z,4.30
2018-03-17T00:45:25.435Z,4.30
2018-03-17T00:47:52.319Z,4.30
2018-03-17T00:50:19.190Z,4.20
2018-03-17T00:52:46.481Z,3.80
2018-03-17T00:55:13.406Z,3.90
2018-03-17T00:57:40.705Z,3.60
2018-03-17T01:00:07.582Z,3.60
2018-03-17T01:02:34.516Z,3.70
2018-03-17T01:05:01.490Z,3.70
2018-03-17T01:07:28.354Z,3.70
2018-03-17T01:09:55.303Z,3.70
2018-03-17T01:12:22.165Z,3.70
2018-03-17T01:14:49.115Z,3.80
2018-03-17T01:17:16.141Z,4.00
2018-03-17T01:19:42.967Z,4.10
2018-03-17T01:22:09.843Z,4.30
2018-03-17T01:24:37.101Z,4.30
2018-03-17T01:27:04.440Z,4.30
2018-03-17T01:29:31.289Z,4.30
2018-03-17T01:31:58.153Z,4.10
2018-03-17T01:34:25.008Z,4.00
2018-03-17T01:36:51.870Z,4.00
2018-03-17T01:39:18.818Z,4.00
2018-03-17T01:41:45.693Z,4.10
2018-03-17T01:44:12.554Z,4.10
2018-03-17T01:46:39.487Z,4.20
2018-03-17T01:49:06.340Z,4.20
2018-03-17T01:51:33.221Z,4.20
2018-03-17T01:54:12.157Z,4.30
2018-03-17T01:56:39.102Z,4.30
2018-03-17T01:59:05.962Z,4.20
2018-03-17T02:01:32.920Z,4.20
2018-03-17T02:03:59.775Z,4.20
2018-03-17T02:06:26.634Z,4.20
2018-03-17T02:08:53.512Z,3.90
2018-03-17T02:11:20.358Z,3.90
2018-03-17T02:13:47.234Z,3.80
2018-03-17T02:16:14.155Z,3.60
2018-03-17T02:18:41.048Z,3.70
2018-03-17T02:21:07.991Z,3.50
2018-03-17T02:23:34.937Z,3.60
2018-03-17T02:26:01.989Z,3.60
2018-03-17T02:28:28.847Z,3.60
2018-03-17T02:30:55.710Z,3.60
2018-03-17T02:33:22.575Z,3.60
2018-03-17T02:35:49.452Z,3.50
2018-03-17T02:38:16.334Z,3.50
2018-03-17T02:40:43.205Z,3.60
2018-03-17T02:43:10.103Z,3.40
2018-03-17T02:45:37.081Z,3.30
2018-03-17T02:48:03.940Z,3.30
2018-03-17T02:50:30.893Z,3.20
2018-03-17T02:52:57.782Z,3.10
2018-03-17T02:55:24.626Z,3.10
2018-03-17T02:57:51.508Z,3.10
2018-03-17T03:00:18.378Z,3.10
2018-03-17T03:02:45.639Z,3.10
2018-03-17T03:05:12.909Z,3.10
2018-03-17T03:07:40.276Z,3.00
2018-03-17T03:10:07.608Z,3.00
2018-03-17T03:12:34.741Z,3.00
2018-03-17T03:15:01.601Z,3.10
2018-03-17T03:17:28.561Z,3.20
2018-03-17T03:19:56.122Z,3.00
2018-03-17T03:22:22.972Z,3.00
2018-03-17T03:24:49.946Z,3.00
2018-03-17T03:27:16.807Z,3.20
2018-03-17T03:29:43.665Z,3.20
2018-03-17T03:32:10.531Z,3.30
2018-03-17T03:34:37.398Z,3.20
2018-03-17T03:37:04.249Z,3.10
2018-03-17T03:39:31.204Z,3.00
2018-03-17T03:41:58.073Z,2.80
2018-03-17T03:44:25.008Z,2.80
2018-03-17T03:46:51.884Z,2.90
2018-03-17T03:49:18.742Z,2.90
2018-03-17T03:51:45.681Z,3.10
2018-03-17T03:54:12.537Z,3.20
2018-03-17T03:56:39.510Z,3.30
2018-03-17T03:59:06.456Z,3.20
2018-03-17T04:01:33.413Z,3.00
2018-03-17T04:04:00.307Z,2.80
2018-03-17T04:06:27.189Z,2.60
2018-03-17T04:08:54.470Z,2.50
2018-03-17T04:11:21.766Z,2.60
2018-03-17T04:13:48.621Z,2.60
2018-03-17T04:16:15.492Z,2.70
2018-03-17T04:18:42.441Z,2.80
2018-03-17T04:21:09.337Z,2.90
2018-03-17T04:23:36.209Z,2.90
2018-03-17T04:26:03.540Z,3.00
2018-03-17T04:28:30.495Z,3.00
2018-03-17T04:30:57.450Z,3.00
2018-03-17T04:33:24.292Z,3.00
2018-03-17T04:35:51.178Z,3.00
2018-03-17T04:38:18.121Z,3.00
2018-03-17T04:40:45.076Z,3.10
2018-03-17T04:43:12.033Z,3.20
2018-03-17T04:45:38.907Z,3.20
2018-03-17T04:48:05.854Z,3.00
2018-03-17T04:50:32.760Z,2.80
2018-03-17T04:52:59.625Z,2.60
2018-03-17T04:55:27.054Z,2.40
2018-03-17T04:57:53.935Z,2.40
2018-03-17T05:00:20.857Z,2.40
2018-03-17T05:02:47.722Z,2.50
2018-03-17T05:05:14.675Z,2.40
2018-03-17T05:07:41.525Z,2.40
2018-03-17T05:10:08.403Z,2.50
2018-03-17T05:12:35.325Z,2.60
2018-03-17T05:15:02.574Z,2.40
2018-03-17T05:17:29.882Z,2.30
2018-03-17T05:19:56.761Z,2.20
2018-03-17T05:22:23.613Z,2.30
2018-03-17T05:24:50.497Z,2.20
2018-03-17T05:27:17.354Z,2.10
2018-03-17T05:29:44.237Z,2.10
2018-03-17T05:32:11.506Z,2.00
2018-03-17T05:34:38.819Z,2.00
2018-03-17T05:37:05.669Z,2.00
2018-03-17T05:39:32.617Z,2.00
2018-03-17T05:41:59.573Z,1.90
2018-03-17T05:44:26.415Z,1.80
2018-03-17T05:46:53.296Z,1.80
2018-03-17T05:49:20.156Z,1.90
2018-03-17T05:51:47.070Z,1.90
2018-03-17T05:54:14.329Z,2.00
2018-03-17T05:56:41.644Z,1.80
2018-03-17T05:59:08.505Z,1.80
2018-03-17T06:01:35.446Z,1.80
2018-03-17T06:04:02.411Z,1.90
2018-03-17T06:06:29.374Z,1.90
2018-03-17T06:08:56.246Z,1.90
2018-03-17T06:11:23.106Z,1.50
2018-03-17T06:13:50.069Z,1.50
2018-03-17T06:16:17.000Z,1.70
2018-03-17T06:18:43.906Z,1.70
2018-03-17T06:21:10.832Z,1.70
2018-03-17T06:23:37.796Z,1.70
2018-03-17T06:26:04.668Z,1.70
2018-03-17T06:28:31.534Z,1.70
2018-03-17T06:30:58.401Z,1.40
2018-03-17T06:33:25.730Z,1.50
2018-03-17T06:35:52.669Z,1.50
2018-03-17T06:38:19.647Z,1.60
2018-03-17T06:40:46.598Z,1.70
2018-03-17T06:43:13.740Z,1.60
2018-03-17T06:45:40.625Z,1.40
2018-03-17T06:48:07.561Z,1.30
2018-03-17T06:50:34.618Z,1.50
2018-03-17T06:53:01.494Z,1.70
2018-03-17T06:55:28.482Z,1.70
2018-03-17T06:57:55.421Z,1.70
2018-03-17T07:00:22.384Z,1.50
2018-03-17T07:02:49.235Z,1.50
2018-03-17T07:05:16.217Z,1.60
2018-03-17T07:07:43.165Z,1.60
2018-03-17T07:10:10.024Z,1.80
2018-03-17T07:12:36.884Z,2.00
2018-03-17T07:15:03.742Z,2.00
2018-03-17T07:17:30.697Z,1.90
2018-03-17T07:19:57.560Z,1.90
2018-03-17T07:22:24.509Z,1.90
2018-03-17T07:24:52.383Z,1.90
2018-03-17T07:27:19.937Z,1.90
2018-03-17T07:29:47.266Z,1.90
2018-03-17T07:32:14.215Z,1.90
2018-03-17T07:34:41.554Z,2.10
2018-03-17T07:37:09.128Z,2.20
2018-03-17T07:39:36.469Z,2.30
2018-03-17T07:42:03.476Z,2.30
2018-03-17T07:44:30.513Z,2.40
2018-03-17T07:46:57.748Z,2.00
2018-03-17T07:49:25.063Z,2.00
2018-03-17T07:51:52.032Z,2.00
2018-03-17T07:54:18.891Z,2.00
2018-03-17T07:56:45.782Z,2.00
2018-03-17T07:59:12.641Z,1.80
2018-03-17T08:01:39.587Z,1.80
2018-03-17T08:04:06.470Z,1.80
2018-03-17T08:06:33.719Z,1.70
2018-03-17T08:09:00.631Z,1.70
2018-03-17T08:11:27.508Z,1.60
2018-03-17T08:13:54.833Z,1.80
2018-03-17T08:16:21.729Z,1.80
2018-03-17T08:18:48.762Z,2.00
2018-03-17T08:21:16.340Z,1.70
2018-03-17T08:23:43.242Z,1.70
2018-03-17T08:26:10.181Z,1.60
2018-03-17T08:28:37.139Z,1.60
2018-03-17T08:31:04.014Z,1.60
2018-03-17T08:33:30.865Z,1.70
2018-03-17T08:35:57.751Z,1.60
2018-03-17T08:38:24.617Z,1.30
2018-03-17T08:40:51.892Z,1.40
2018-03-17T08:43:19.162Z,1.50
2018-03-17T08:45:46.452Z,1.50
2018-03-17T08:48:13.312Z,1.50
2018-03-17T08:50:40.173Z,1.70
2018-03-17T08:53:07.170Z,1.80
2018-03-17T08:55:33.981Z,2.00
2018-03-17T08:58:00.908Z,1.90
2018-03-17T09:00:27.706Z,1.60
2018-03-17T09:02:54.588Z,1.40
2018-03-17T09:05:21.527Z,1.40
2018-03-17T09:07:48.462Z,1.40
2018-03-17T09:10:15.755Z,1.60
2018-03-17T09:12:42.614Z,1.60
2018-03-17T09:15:09.501Z,1.60
2018-03-17T09:17:36.435Z,1.70
2018-03-17T09:20:03.295Z,1.60
2018-03-17T09:22:30.235Z,1.70
2018-03-17T09:24:57.273Z,1.80
2018-03-17T09:27:24.548Z,1.70
2018-03-17T09:29:51.502Z,1.70
2018-03-17T09:32:18.369Z,1.50
2018-03-17T09:34:45.385Z,1.60
2018-03-17T09:37:12.285Z,1.40
2018-03-17T09:39:39.153Z,1.30
2018-03-17T09:42:06.106Z,1.50
2018-03-17T09:44:32.958Z,1.50
2018-03-17T09:46:59.867Z,1.50
2018-03-17T09:49:26.832Z,1.40
2018-03-17T09:51:53.754Z,1.40
2018-03-17T09:54:20.644Z,1.40
2018-03-17T09:56:47.610Z,1.60
2018-03-17T09:59:14.861Z,1.50
2018-03-17T10:01:41.738Z,1.50
2018-03-17T10:04:09.001Z,1.70
2018-03-17T10:06:36.073Z,1.70
2018-03-17T10:09:03.357Z,1.60
2018-03-17T10:11:30.291Z,1.60
2018-03-17T10:13:57.572Z,1.40
2018-03-17T10:16:24.490Z,1.40
2018-03-17T10:18:51.457Z,1.40
2018-03-17T10:21:18.359Z,1.40
2018-03-17T10:23:45.257Z,1.40
2018-03-17T10:26:12.143Z,1.60
2018-03-17T10:28:39.060Z,1.60
2018-03-17T10:31:05.932Z,1.40
2018-03-17T10:33:32.888Z,1.20
2018-03-17T10:36:00.055Z,1.10
2018-03-17T10:38:26.966Z,1.20
2018-03-17T10:40:54.236Z,1.40
2018-03-17T10:43:21.411Z,1.40
2018-03-17T10:45:48.285Z,1.50
2018-03-17T10:48:15.232Z,1.60
2018-03-17T10:50:42.134Z,1.60
2018-03-17T10:53:09.072Z,1.60
2018-03-17T10:55:35.975Z,1.80
2018-03-17T10:58:03.213Z,1.60
2018-03-17T11:00:30.337Z,1.50
2018-03-17T11:02:57.211Z,1.30
2018-03-17T11:05:24.199Z,1.10
2018-03-17T11:07:51.153Z,1.30
2018-03-17T11:10:18.079Z,1.50
2018-03-17T11:12:45.172Z,1.60
2018-03-17T11:15:12.157Z,1.50
2018-03-17T11:17:39.094Z,1.30
2018-03-17T11:20:06.086Z,1.10
2018-03-17T11:22:32.949Z,0.90
2018-03-17T11:24:59.853Z,1.00
2018-03-17T11:27:26.719Z,1.10
2018-03-17T11:29:53.668Z,1.20
2018-03-17T11:32:20.528Z,1.10
2018-03-17T11:34:47.402Z,1.00
2018-03-17T11:37:14.369Z,1.00
2018-03-17T11:39:41.267Z,1.10
2018-03-17T11:42:08.167Z,1.20
2018-03-17T11:44:35.104Z,1.30
2018-03-17T11:47:02.097Z,1.30
2018-03-17T11:49:29.052Z,1.30
2018-03-17T11:51:56.329Z,1.30
2018-03-17T11:54:23.331Z,1.30
2018-03-17T11:56:50.286Z,1.40
2018-03-17T11:59:17.323Z,1.20
2018-03-17T12:01:44.237Z,1.20
2018-03-17T12:04:11.527Z,1.20
2018-03-17T12:06:38.493Z,1.10
2018-03-17T12:09:05.363Z,1.20
2018-03-17T12:11:32.224Z,1.10
2018-03-17T12:13:59.442Z,1.10
2018-03-17T12:16:26.677Z,1.10
2018-03-17T12:18:53.600Z,1.10
2018-03-17T12:21:20.449Z,0.90
2018-03-17T12:23:47.332Z,1.00
2018-03-17T12:26:14.214Z,1.30
2018-03-17T12:28:41.070Z,1.60
2018-03-17T12:31:07.946Z,1.70
2018-03-17T12:33:35.182Z,0.90
2018-03-17T12:36:02.130Z,0.90
2018-03-17T12:38:29.078Z,0.80
2018-03-17T12:40:55.938Z,1.00
2018-03-17T12:43:22.826Z,1.10
2018-03-17T12:45:49.721Z,1.20
2018-03-17T12:48:17.111Z,1.10
2018-03-17T12:50:44.382Z,0.90
2018-03-17T12:53:11.225Z,0.90
2018-03-17T12:55:38.125Z,0.80
2018-03-17T12:58:04.983Z,1.00
2018-03-17T13:00:31.926Z,0.90
2018-03-17T13:02:58.869Z,0.90
2018-03-17T13:05:25.829Z,0.80
2018-03-17T13:07:52.684Z,0.80
2018-03-17T13:10:19.566Z,0.80
2018-03-17T13:12:46.561Z,0.90
2018-03-17T13:15:13.823Z,1.40
2018-03-17T13:17:40.766Z,1.40
2018-03-17T13:20:07.693Z,1.40
2018-03-17T13:22:46.506Z,1.60
2018-03-17T13:25:13.471Z,1.40
2018-03-17T13:30:35.644Z,1.10
2018-03-17T13:33:02.966Z,1.20
2018-03-17T13:35:41.764Z,1.20
2018-03-17T13:38:09.037Z,1.50
2018-03-17T13:40:43.466Z,1.30
2018-03-17T13:43:10.631Z,1.30
2018-03-17T13:45:37.894Z,1.20
2018-03-17T13:48:04.742Z,1.30
2018-03-17T13:50:31.629Z,1.50
2018-03-17T13:52:58.573Z,1.50
2018-03-17T13:55:25.907Z,1.40
2018-03-17T13:57:52.859Z,1.40
2018-03-17T14:00:19.900Z,1.30
2018-03-17T14:02:46.777Z,1.10
2018-03-17T14:05:13.708Z,0.80
2018-03-17T14:07:40.618Z,0.70
2018-03-17T14:10:07.843Z,0.80
2018-03-17T14:12:34.772Z,0.80
2018-03-17T14:15:01.645Z,1.00
2018-03-17T14:17:28.540Z,1.20
2018-03-17T14:19:55.961Z,1.10
2018-03-17T14:22:22.853Z,1.10
2018-03-17T14:24:49.718Z,1.10
2018-03-17T14:27:16.634Z,1.10
2018-03-17T14:29:43.508Z,0.90
2018-03-17T14:32:10.457Z,0.90
2018-03-17T14:34:37.413Z,0.80
2018-03-17T14:37:04.380Z,0.90
2018-03-17T14:39:31.325Z,0.80
2018-03-17T14:41:58.372Z,0.70
2018-03-17T14:44:25.259Z,0.70
2018-03-17T14:46:52.142Z,0.60
2018-03-17T14:49:18.982Z,0.50
2018-03-17T14:51:45.848Z,0.40
2018-03-17T14:54:12.777Z,0.50
2018-03-17T14:56:39.676Z,0.60
2018-03-17T14:59:06.602Z,0.70
2018-03-17T15:01:33.482Z,0.50
2018-03-17T15:04:00.406Z,0.30
2018-03-17T15:06:27.258Z,0.20
2018-03-17T15:08:54.211Z,0.20
2018-03-17T15:11:21.151Z,0.00
2018-03-17T15:13:48.077Z,-0.10
2018-03-17T15:16:14.996Z,0.00
2018-03-17T15:18:41.836Z,0.20
2018-03-17T15:21:08.722Z,0.40
2018-03-17T15:23:35.647Z,0.30
2018-03-17T15:26:02.541Z,0.20
2018-03-17T15:28:29.553Z,0.10
2018-03-17T15:30:56.872Z,0.10
2018-03-17T15:33:23.763Z,0.10
2018-03-17T15:35:50.700Z,0.10
2018-03-17T15:38:17.654Z,0.10
2018-03-17T15:40:44.598Z,0.20
2018-03-17T15:43:11.751Z,0.20
2018-03-17T15:45:39.016Z,0.00
2018-03-17T15:48:05.942Z,0.00
2018-03-17T15:50:32.791Z,0.00
2018-03-17T15:52:59.730Z,-0.20
2018-03-17T15:55:26.618Z,-0.20
2018-03-17T15:57:53.526Z,-0.20
2018-03-17T16:00:20.407Z,-0.40
2018-03-17T16:02:47.298Z,-0.40
2018-03-17T16:05:14.551Z,-0.20
2018-03-17T16:07:41.477Z,-0.20
2018-03-17T16:10:08.449Z,-0.10
2018-03-17T16:12:35.318Z,0.10
2018-03-17T16:15:02.179Z,-0.10
2018-03-17T16:17:29.057Z,-0.20
2018-03-17T16:19:56.339Z,-0.40
2018-03-17T16:22:23.614Z,-0.40
2018-03-17T16:24:50.625Z,-0.40
2018-03-17T16:27:17.555Z,-0.30
2018-03-17T16:29:44.513Z,-0.20
2018-03-17T16:32:11.477Z,-0.10
2018-03-17T16:34:38.353Z,-0.10
2018-03-17T16:37:05.248Z,-0.20
2018-03-17T16:39:32.165Z,-0.10
2018-03-17T16:41:59.108Z,0.00
2018-03-17T16:44:25.977Z,0.10
2018-03-17T16:46:53.123Z,-0.10
2018-03-17T16:49:20.133Z,-0.20
2018-03-17T16:51:47.105Z,-0.30
2018-03-17T16:54:13.954Z,-0.40
2018-03-17T16:56:40.813Z,-0.40
2018-03-17T16:59:07.730Z,-0.40
2018-03-17T17:01:34.706Z,-0.50
2018-03-17T17:04:01.603Z,-0.40
2018-03-17T17:06:28.861Z,-0.30
2018-03-17T17:08:55.962Z,-0.30
2018-03-17T17:11:23.282Z,-0.40
2018-03-17T17:13:50.262Z,-0.40
2018-03-17T17:16:17.141Z,-0.20
2018-03-17T17:18:43.989Z,-0.10
2018-03-17T17:21:11.297Z,-0.20
2018-03-17T17:23:38.364Z,-0.20
2018-03-17T17:26:05.318Z,-0.40
2018-03-17T17:28:32.360Z,-0.50
2018-03-17T17:30:59.251Z,-0.50
2018-03-17T17:33:26.110Z,-0.50
2018-03-17T17:35:53.100Z,-0.40
2018-03-17T17:38:20.100Z,-0.40
2018-03-17T17:40:46.997Z,-0.50
2018-03-17T17:43:13.935Z,-0.60
2018-03-17T17:45:40.927Z,-0.60
2018-03-17T17:48:07.871Z,-0.50
2018-03-17T17:50:34.790Z,-0.50
2018-03-17T17:53:02.695Z,-0.60
2018-03-17T17:55:29.701Z,-0.80
2018-03-17T17:57:56.654Z,-0.80
2018-03-17T18:00:23.527Z,-0.70
2018-03-17T18:02:50.462Z,-0.70
2018-03-17T18:05:17.542Z,-0.70
2018-03-17T18:07:44.586Z,-0.70
2018-03-17T18:10:11.620Z,-0.70
2018-03-17T18:12:38.897Z,-0.70
2018-03-17T18:15:05.766Z,-0.70
2018-03-17T18:17:32.811Z,-0.60
2018-03-17T18:19:59.767Z,-0.60
2018-03-17T18:22:27.010Z,-0.70
2018-03-17T18:24:54.326Z,-0.50
2018-03-17T18:27:21.221Z,-0.50
2018-03-17T18:29:48.097Z,-0.40
2018-03-17T18:32:15.414Z,-0.70
2018-03-17T18:34:42.357Z,-0.70
2018-03-17T18:37:09.253Z,-0.80
2018-03-17T18:39:36.094Z,-0.80
2018-03-17T18:42:02.958Z,-0.90
2018-03-17T18:44:29.834Z,-1.00
2018-03-17T18:46:56.711Z,-0.90
2018-03-17T18:49:24.017Z,-1.00
2018-03-17T18:51:50.900Z,-1.00
2018-03-17T18:54:17.841Z,-1.10
2018-03-17T18:56:44.797Z,-1.00
2018-03-17T18:59:11.765Z,-0.90
2018-03-17T19:01:38.628Z,-0.80
2018-03-17T19:04:05.570Z,-0.80
2018-03-17T19:06:32.417Z,-0.90
2018-03-17T19:08:59.412Z,-0.80
2018-03-17T19:11:26.461Z,-0.70
2018-03-17T19:13:53.357Z,-0.90
2018-03-17T19:16:20.218Z,-1.00
2018-03-17T19:18:47.488Z,-1.10
2018-03-17T19:21:14.737Z,-1.00
2018-03-17T19:23:41.627Z,-1.00
2018-03-17T19:26:08.499Z,-0.90
2018-03-17T19:28:35.382Z,-0.90
2018-03-17T19:31:02.321Z,-0.90
2018-03-17T19:33:29.188Z,-0.80
2018-03-17T19:35:56.925Z,-0.80
2018-03-17T19:38:24.244Z,-0.90
2018-03-17T19:40:51.098Z,-0.90
2018-03-17T19:43:17.977Z,-0.90
2018-03-17T19:45:44.902Z,-0.90
2018-03-17T19:48:11.841Z,-0.90
2018-03-17T19:50:39.158Z,-1.00
2018-03-17T19:53:06.044Z,-1.00
2018-03-17T19:55:33.294Z,-1.00
2018-03-17T19:58:00.182Z,-1.00
2018-03-17T20:00:27.459Z,-1.00
2018-03-17T20:02:54.785Z,-1.10
2018-03-17T20:05:21.673Z,-1.10
2018-03-17T20:07:48.961Z,-1.10
2018-03-17T20:10:15.830Z,-1.10
2018-03-17T20:12:42.694Z,-1.10
2018-03-17T20:15:09.568Z,-1.00
2018-03-17T20:17:36.472Z,-0.80
2018-03-17T20:20:03.774Z,-0.70
2018-03-17T20:22:30.620Z,-0.70
2018-03-17T20:24:57.602Z,-0.80
2018-03-17T20:27:24.496Z,-1.00
2018-03-17T20:29:51.333Z,-0.90
2018-03-17T20:32:18.272Z,-0.90
2018-03-17T20:34:45.136Z,-0.80
2018-03-17T20:37:12.171Z,-0.70
2018-03-17T20:39:38.961Z,-0.80
2018-03-17T20:42:05.947Z,-0.90
2018-03-17T20:44:32.819Z,-0.80
2018-03-17T20:47:00.129Z,-0.70
2018-03-17T20:49:27.011Z,-0.70
2018-03-17T20:51:54.023Z,-0.90
2018-03-17T20:54:21.288Z,-0.90
2018-03-17T20:56:48.452Z,-0.90
2018-03-17T20:59:15.709Z,-0.80
2018-03-17T21:01:42.609Z,-0.80
2018-03-17T21:04:09.550Z,-0.60
2018-03-17T21:06:36.430Z,-0.60
2018-03-17T21:09:03.287Z,-0.60
2018-03-17T21:11:30.224Z,-0.60
2018-03-17T21:13:57.108Z,-0.50
2018-03-17T21:16:23.993Z,-0.60
2018-03-17T21:18:51.248Z,-0.90
2018-03-17T21:21:18.453Z,-0.80
2018-03-17T21:23:45.399Z,-0.90
2018-03-17T21:26:12.716Z,-0.70
2018-03-17T21:28:39.673Z,-0.70
2018-03-17T21:31:06.617Z,-0.80
2018-03-17T21:33:33.479Z,-0.70
2018-03-17T21:36:00.418Z,-0.60
2018-03-17T21:38:27.829Z,-0.80
2018-03-17T21:40:54.697Z,-0.80
2018-03-17T21:43:21.618Z,-0.90
2018-03-17T21:45:48.514Z,-0.80
2018-03-17T21:48:15.405Z,-0.70
2018-03-17T21:50:42.298Z,-1.00
2018-03-17T21:53:09.253Z,-1.00
2018-03-17T21:55:36.292Z,-1.10
2018-03-17T21:58:03.552Z,-1.10
2018-03-17T22:00:30.620Z,-1.10
2018-03-17T22:02:57.907Z,-0.90
2018-03-17T22:05:24.882Z,-0.90
2018-03-17T22:07:51.808Z,-0.90
2018-03-17T22:10:19.057Z,-0.60
2018-03-17T22:12:46.357Z,-0.70
2018-03-17T22:15:13.233Z,-0.70
2018-03-17T22:17:40.100Z,-0.80
2018-03-17T22:20:07.039Z,-0.90
2018-03-17T22:22:33.986Z,-0.90
2018-03-17T22:25:00.860Z,-0.70
2018-03-17T22:27:27.740Z,-0.70
2018-03-17T22:29:54.633Z,-0.70
2018-03-17T22:32:21.500Z,-0.80
2018-03-17T22:34:48.611Z,-0.90
2018-03-17T22:37:15.461Z,-0.80
2018-03-17T22:39:42.332Z,-0.90
2018-03-17T22:42:09.249Z,-0.90
2018-03-17T22:44:36.245Z,-0.90
2018-03-17T22:47:03.226Z,-1.00
2018-03-17T22:49:30.531Z,-0.90
2018-03-17T22:51:57.402Z,-0.90
2018-03-17T22:54:24.375Z,-0.90
2018-03-17T22:56:51.315Z,-0.80
2018-03-17T22:59:18.234Z,-0.70
2018-03-17T23:01:45.078Z,-0.80
2018-03-17T23:04:12.110Z,-1.00
2018-03-17T23:06:39.058Z,-1.00
2018-03-17T23:09:05.941Z,-1.00
2018-03-17T23:11:32.801Z,-1.00
2018-03-17T23:13:59.719Z,-1.10
2018-03-17T23:16:26.809Z,-1.00
2018-03-17T23:18:53.680Z,-1.20
2018-03-17T23:21:20.594Z,-1.10
2018-03-17T23:23:47.649Z,-1.00
2018-03-17T23:26:14.645Z,-0.90
2018-03-17T23:28:41.521Z,-0.80
2018-03-17T23:31:08.440Z,-0.80
2018-03-17T23:33:35.319Z,-0.90
2018-03-17T23:36:02.258Z,-0.80
2018-03-17T23:38:29.212Z,-0.80
2018-03-17T23:40:56.141Z,-0.80
2018-03-17T23:43:23.037Z,-0.80
2018-03-17T23:45:50.007Z,-0.70
2018-03-17T23:48:16.965Z,-0.60
2018-03-17T23:50:43.822Z,-0.60
2018-03-17T23:53:11.103Z,-0.70
2018-03-17T23:55:38.053Z,-0.70
2018-03-17T23:58:04.998Z,-0.60
